Flight Information

DEPARTURE
PAGE, AZ
Elevation:
4316
Runways:
15/33 - 5950x150 - ASPH-G
7/25 - 2201x75 - ASPH-G
CTAF:
122.800
DESTINATION
CHINO, CA
Elevation:
650
TPA:
1400 (750)
Runways:
8R/26L - 7000x150 - ASPH-G
8L/26R - 4858x150 - ASPH-G
3/21 - 4919x150 - ASPH-G
Active PE Arriving:
26L - 26R
Active PE Approach:
VISUAL APPROACHES IN USE.
Current PE ATIS:
B
Altimeter:
30.10
Remarks:
ATIS:
125.85 909-393-5365
Tower:
118.5
Ground:
121.6


350.4 NM241° True-14° Var227° HDG

Flight Plan:
(click to file on line)

1. Type
2. Aircraft Identification
3. Aircraft Type / Special Equipment
4. True Airspeed
kts
5. Departure Airport
(ICAO code)
6. Arriving Airport
(ICAO code)
7. Cruising Altitude
ft
8. Alternate Airport
(ICAO code)
9. Route of Flight
10. Remarks


00:00:00 Departure ATIS: Destination ATIS:

Clearance Limit:
Route:
Altitude: Expect in minutes
Frequency:
Transponder: (7500 Hijack / 7600 Lost Comms / 7700 Emergency)


KPGA 211753Z AUTO 04006KT 10SM CLR 22/M04 A3046 RMK AO2 SLP265 T02171039 10217 20128 50006
Time: 2021-09-21T17:53:00Z
1632248797
Winds: 40 @ 6 kts
Visibility: 10.0 sm
Clouds (AGL): CLR
Temperature: 21.7 C
Dew Point: -3.9 C
Pressure: 30.46063 in Hgbr

KCNO 211753Z 00000KT 10SM CLR 34/09 A3010 RMK AO2 SLP185 T03390094 10339 20150 50001
Time: 2021-09-21T17:53:00Z
1632248797
Winds: calm
Visibility: 10.0 sm
Clouds (AGL): CLR
Temperature: 33.9 C
Dew Point: 9.4 C
Pressure: 30.100393 in Hgbr


Notes:

Data extracted from FAA Digital Chart Supplement. Effective: 0901Z Thursday, AUG 12, 2021 to 0901Z Thursday, OCT 7, 2021
Current ATIS data is provided courtisy of PilotEdge.